»·PEaware :: CGTFO KPAE-KRNO

CGTFO :: KPAE-KRNO

FLIGHT INFORMATION

Flight Status: Arrived
Operator: Unknown
More flights by this operator :: More flights under this callsign
Pilot: Anonymous 30466 (30466)
Aircraft: SOCATA TBM-900
(TBM9)
More flights by this aircraft type
Origin: KPAE Paine Field/Snohomish Co.
United States
Destination: KRNO Reno/Tahoe Intl
United States
More flights between these airports :: More routes between these airports
Route: +PAINE6 SEA SUMMA J5 FMG
File this flight plan on PilotEdge
Remarks: no rnav capability
Altitude:
(Current/Filed)
24,000ft
Speed:
(Current/Filed)
310kts
Departed: 13-Nov-20 09:58 PM
Arrived: 13-Nov-20 10:58 PM
Distance/Time
Traveled:
516nm/1:00
Distance/Time
To Go:
Arrived

Flight Plot

Page will automatically refresh every two minutes.

Flight plan parsing failed; only flown route is shown


Map Options




Map Legend


Flown Route
Filed Route
Departure Airport
Arrival Airport
Navaid (VOR, NDB)
Fix

Horizontal Profiles

Position Reports

Time Latitude Longitude Heading Altitude Ground
Speed
13-Nov-20 21:57 42.990302 -120.676391 166 31013ft 337kts
13-Nov-20 21:57 42.914608 -120.650423 168 31035ft 334kts
13-Nov-20 21:59 42.812376 -120.615515 170 30376ft 313kts
13-Nov-20 21:59 42.743520 -120.592049 170 29559ft 307kts
13-Nov-20 22:00 42.660795 -120.563943 170 28534ft 304kts
13-Nov-20 22:02 42.565771 -120.531752 170 27333ft 298kts
13-Nov-20 22:02 42.499208 -120.508858 168 26411ft 294kts
13-Nov-20 22:03 42.420442 -120.484828 168 25400ft 289kts
13-Nov-20 22:04 42.342987 -120.460107 172 24396ft 283kts
13-Nov-20 22:06 42.253749 -120.432530 171 24096ft 287kts
13-Nov-20 22:06 42.188477 -120.412454 171 24082ft 291kts
13-Nov-20 22:08 42.096108 -120.383873 170 24078ft 292kts
13-Nov-20 22:08 42.029989 -120.363478 171 24077ft 292kts
13-Nov-20 22:09 41.950834 -120.339130 171 24077ft 292kts
13-Nov-20 22:10 41.871553 -120.314802 170 24081ft 292kts
13-Nov-20 22:11 41.792217 -120.290526 171 24086ft 292kts
13-Nov-20 22:12 41.713375 -120.266423 171 24072ft 290kts
13-Nov-20 22:13 41.634735 -120.242194 172 24055ft 289kts
13-Nov-20 22:14 41.556467 -120.218654 170 24040ft 289kts
13-Nov-20 22:15 41.476142 -120.194357 169 24082ft 302kts
13-Nov-20 22:16 41.392851 -120.169126 167 24121ft 310kts
13-Nov-20 22:17 41.309365 -120.144006 166 23792ft 303kts
13-Nov-20 22:18 41.227256 -120.119240 165 22727ft 302kts
13-Nov-20 22:19 41.145689 -120.094812 165 21681ft 299kts
13-Nov-20 22:20 41.065085 -120.070606 166 20593ft 294kts
13-Nov-20 22:21 40.985650 -120.046945 166 19496ft 289kts
13-Nov-20 22:22 40.908534 -120.023919 167 18407ft 279kts
13-Nov-20 22:23 40.833438 -120.001640 166 17270ft 275kts
13-Nov-20 22:24 40.759158 -119.979600 167 16209ft 271kts
13-Nov-20 22:25 40.685639 -119.957776 168 16036ft 278kts
13-Nov-20 22:26 40.609310 -119.935304 168 16029ft 282kts
13-Nov-20 22:27 40.532636 -119.912616 168 16034ft 283kts
13-Nov-20 22:28 40.455860 -119.890143 168 16027ft 283kts
13-Nov-20 22:29 40.380701 -119.868139 168 16016ft 266kts
13-Nov-20 22:30 40.307813 -119.846671 168 16046ft 275kts
13-Nov-20 22:31 40.232060 -119.825693 172 16023ft 279kts
13-Nov-20 22:32 40.154714 -119.820553 180 16021ft 276kts
13-Nov-20 22:33 40.079093 -119.817615 180 16030ft 267kts
13-Nov-20 22:34 40.005639 -119.812919 179 15975ft 259kts
13-Nov-20 22:35 39.937795 -119.802012 201 15948ft 241kts
13-Nov-20 22:36 39.875674 -119.830325 180 15351ft 247kts
13-Nov-20 22:37 39.820500 -119.778092 134 14396ft 248kts
13-Nov-20 22:38 39.770206 -119.718703 162 13184ft 243kts
13-Nov-20 22:39 39.705152 -119.703412 169 12017ft 236kts
13-Nov-20 22:40 39.641559 -119.686596 170 10819ft 228kts
13-Nov-20 22:41 39.580549 -119.669520 170 9572ft 223kts
13-Nov-20 22:42 39.523559 -119.650255 149 8972ft 196kts
13-Nov-20 22:43 39.509708 -119.592485 55 9019ft 164kts
13-Nov-20 22:44 39.542390 -119.551013 17 9085ft 162kts
13-Nov-20 22:45 39.550810 -119.499664 117 9011ft 177kts
13-Nov-20 22:46 39.527407 -119.444388 103 9000ft 172kts
13-Nov-20 22:47 39.549707 -119.444941 299 9060ft 130kts
13-Nov-20 22:48 39.564530 -119.488021 270 9013ft 135kts
13-Nov-20 22:49 39.551077 -119.533492 253 9007ft 130kts
13-Nov-20 22:50 39.542618 -119.575432 276 8531ft 118kts
13-Nov-20 22:51 39.538396 -119.617102 251 7920ft 126kts
13-Nov-20 22:52 39.527522 -119.657972 261 7867ft 106kts
13-Nov-20 22:53 39.517654 -119.696802 262 7598ft 119kts
13-Nov-20 22:54 39.497675 -119.727541 194 6509ft 111kts
13-Nov-20 22:55 39.475953 -119.740705 252 5598ft 92kts
13-Nov-20 22:56 39.482736 -119.766432 346 4670ft 85kts
13-Nov-20 22:57 39.500089 -119.766787 359 4410ft 31kts
13-Nov-20 22:58 39.502840 -119.765941 110 4410ft 0kts
13-Nov-20 22:59 39.502840 -119.765941 110 4410ft 0kts
13-Nov-20 23:00 39.501438 -119.765176 51 4409ft 3kts
13-Nov-20 23:01 39.501887 -119.764575 284 4409ft 0kts
13-Nov-20 23:02 39.501887 -119.764575 284 4409ft 0kts
13-Nov-20 23:03 39.501887 -119.764575 284 4409ft 0kts
13-Nov-20 23:04 39.501887 -119.764575 284 4409ft 0kts
13-Nov-20 23:05 39.501887 -119.764575 284 4409ft 0kts
13-Nov-20 23:06 39.501887 -119.764575 284 4409ft 0kts
13-Nov-20 23:07 39.501887 -119.764575 284 4409ft 0kts
13-Nov-20 23:08 39.501887 -119.764575 284 4409ft 0kts
13-Nov-20 23:09 39.501887 -119.764575 284 4409ft 0kts
13-Nov-20 23:10 39.501887 -119.764575 284 4409ft 0kts
13-Nov-20 23:11 39.501887 -119.764575 284 4409ft 0kts

Navigation Log

Ident Type
Flight plan parsing failed, navigation log unavailable